createdAt,value
2022-12-04T00:01:47.690Z,24.30
2022-12-04T00:04:19.369Z,28.00
2022-12-04T00:06:50.097Z,28.23
2022-12-04T00:09:23.576Z,27.50
2022-12-04T00:11:54.106Z,29.90
2022-12-04T00:17:11.848Z,32.27
2022-12-04T00:19:50.286Z,23.77
2022-12-04T00:22:21.817Z,32.70
2022-12-04T00:24:51.353Z,31.63
2022-12-04T00:27:21.289Z,28.40
2022-12-04T00:29:57.980Z,30.03
2022-12-04T00:32:29.263Z,29.83
2022-12-04T00:34:58.195Z,23.80
2022-12-04T00:37:27.566Z,22.60
2022-12-04T00:39:57.417Z,26.07
2022-12-04T00:42:26.533Z,23.43
2022-12-04T00:45:00.138Z,24.23
2022-12-04T00:47:31.789Z,23.73
2022-12-04T00:50:02.189Z,23.47
2022-12-04T00:52:31.315Z,22.83
2022-12-04T00:55:00.729Z,22.63
2022-12-04T00:57:31.312Z,25.50
2022-12-04T01:00:05.219Z,21.33
2022-12-04T01:02:34.287Z,24.80
2022-12-04T01:05:03.553Z,26.20
2022-12-04T01:07:32.527Z,26.60
2022-12-04T01:10:04.521Z,23.07
2022-12-04T01:12:33.311Z,20.33
2022-12-04T01:15:05.662Z,23.43
2022-12-04T01:17:34.642Z,23.43
2022-12-04T01:20:06.706Z,21.33
2022-12-04T01:22:36.411Z,17.33
2022-12-04T01:25:05.387Z,19.30
2022-12-04T01:27:35.751Z,20.93
2022-12-04T01:30:08.865Z,19.43
2022-12-04T01:32:38.877Z,23.03
2022-12-04T01:35:09.548Z,21.17
2022-12-04T01:37:40.466Z,20.10
2022-12-04T01:40:10.590Z,19.87
2022-12-04T01:42:39.661Z,26.70
2022-12-04T01:45:43.684Z,23.07
2022-12-04T01:48:17.423Z,21.50
2022-12-04T01:50:48.118Z,20.23
2022-12-04T01:53:16.990Z,17.83
2022-12-04T01:55:46.518Z,16.33
2022-12-04T01:58:18.493Z,21.87
2022-12-04T02:00:54.747Z,21.90
2022-12-04T02:03:26.191Z,14.07
2022-12-04T02:05:56.294Z,17.47
2022-12-04T02:08:25.677Z,17.97
2022-12-04T02:10:59.336Z,18.53
2022-12-04T02:13:31.227Z,17.50
2022-12-04T02:16:08.366Z,19.07
2022-12-04T02:18:39.654Z,21.97
2022-12-04T02:21:12.360Z,20.93
2022-12-04T02:23:52.859Z,24.20
2022-12-04T02:26:29.156Z,21.17
2022-12-04T02:29:01.740Z,21.97
2022-12-04T02:31:36.052Z,22.97
2022-12-04T02:34:09.414Z,19.97
2022-12-04T02:36:44.151Z,23.90
2022-12-04T02:39:17.065Z,28.90
2022-12-04T02:41:47.619Z,22.77
2022-12-04T02:44:22.377Z,19.33
2022-12-04T02:46:55.029Z,22.80
2022-12-04T02:49:28.747Z,21.10
2022-12-04T02:51:58.127Z,21.20
2022-12-04T02:54:29.447Z,23.33
2022-12-04T02:56:59.604Z,22.90
2022-12-04T02:59:35.793Z,26.43
2022-12-04T03:02:08.518Z,22.63
2022-12-04T03:04:38.082Z,26.90
2022-12-04T03:07:09.424Z,24.33
2022-12-04T03:09:42.729Z,19.90
2022-12-04T03:12:15.858Z,23.00
2022-12-04T03:14:51.201Z,19.53
2022-12-04T03:17:23.257Z,22.47
2022-12-04T03:19:58.593Z,24.37
2022-12-04T03:22:29.116Z,19.80
2022-12-04T03:24:59.690Z,19.43
2022-12-04T03:27:31.966Z,19.50
2022-12-04T03:30:06.011Z,22.13
2022-12-04T03:32:38.813Z,18.97
2022-12-04T03:35:09.795Z,16.27
2022-12-04T03:37:41.667Z,20.23
2022-12-04T03:40:14.795Z,21.27
2022-12-04T03:42:47.410Z,22.23
2022-12-04T03:45:21.998Z,20.77
2022-12-04T03:47:55.308Z,21.17
2022-12-04T03:50:29.222Z,19.63
2022-12-04T03:53:06.614Z,22.20
2022-12-04T03:55:38.328Z,22.93
2022-12-04T03:58:09.359Z,21.33
2022-12-04T04:00:42.165Z,20.10
2022-12-04T04:03:13.401Z,19.03
2022-12-04T04:05:44.152Z,18.57
2022-12-04T04:08:29.739Z,20.83
2022-12-04T04:11:08.472Z,16.53
2022-12-04T04:13:58.408Z,20.67
2022-12-04T04:16:50.489Z,19.57
2022-12-04T04:19:38.239Z,18.83
2022-12-04T04:22:27.107Z,18.13
2022-12-04T04:25:00.251Z,19.57
2022-12-04T04:27:29.864Z,17.87
2022-12-04T04:30:00.611Z,18.93
2022-12-04T04:32:37.295Z,16.00
2022-12-04T04:35:11.022Z,18.73
2022-12-04T04:37:43.456Z,22.23
2022-12-04T04:40:15.866Z,19.97
2022-12-04T04:42:48.216Z,22.07
2022-12-04T04:45:21.180Z,18.43
2022-12-04T04:47:54.795Z,19.23
2022-12-04T04:50:27.178Z,18.10
2022-12-04T04:52:58.014Z,18.00
2022-12-04T04:55:28.145Z,19.53
2022-12-04T04:57:57.139Z,19.23
2022-12-04T05:00:25.983Z,18.33
2022-12-04T05:02:58.989Z,16.77
2022-12-04T05:05:28.917Z,19.43
2022-12-04T05:07:59.392Z,17.67
2022-12-04T05:10:28.333Z,15.90
2022-12-04T05:12:57.924Z,22.20
2022-12-04T05:15:27.817Z,21.87
2022-12-04T05:17:58.723Z,19.97
2022-12-04T05:20:26.701Z,19.80
2022-12-04T05:22:55.572Z,16.90
2022-12-04T05:25:26.599Z,17.47
2022-12-04T05:27:55.443Z,18.57
2022-12-04T05:30:25.440Z,21.43
2022-12-04T05:32:55.683Z,23.90
2022-12-04T05:35:28.571Z,21.27
2022-12-04T05:37:57.926Z,23.20
2022-12-04T05:40:27.536Z,21.67
2022-12-04T05:42:59.518Z,25.43
2022-12-04T05:45:28.222Z,19.87
2022-12-04T05:47:57.320Z,22.07
2022-12-04T05:50:31.836Z,21.70
2022-12-04T05:53:01.712Z,24.97
2022-12-04T05:55:31.329Z,27.00
2022-12-04T05:58:00.614Z,20.47
2022-12-04T06:00:30.235Z,22.83
2022-12-04T06:02:59.509Z,23.77
2022-12-04T06:05:31.098Z,23.87
2022-12-04T06:08:01.814Z,24.23
2022-12-04T06:10:34.089Z,22.17
2022-12-04T06:13:04.408Z,26.80
2022-12-04T06:15:34.461Z,24.73
2022-12-04T06:18:04.297Z,26.27
2022-12-04T06:20:43.395Z,21.83
2022-12-04T06:23:18.734Z,26.83
2022-12-04T06:28:36.351Z,21.70
2022-12-04T06:31:08.468Z,20.10
2022-12-04T06:33:40.850Z,22.27
2022-12-04T06:36:28.576Z,24.13
2022-12-04T06:39:00.194Z,19.77
2022-12-04T06:41:38.364Z,21.27
2022-12-04T06:44:12.210Z,22.90
2022-12-04T06:46:50.370Z,21.53
2022-12-04T06:49:23.640Z,22.93
2022-12-04T06:51:57.449Z,21.90
2022-12-04T06:54:29.217Z,19.13
2022-12-04T06:57:00.441Z,20.87
2022-12-04T06:59:31.650Z,20.53
2022-12-04T07:02:00.537Z,21.87
2022-12-04T07:04:30.911Z,21.33
2022-12-04T07:22:42.279Z,23.10
2022-12-04T07:31:19.535Z,17.77
2022-12-04T07:34:02.479Z,21.03
2022-12-04T07:39:33.626Z,20.07
2022-12-04T07:58:47.713Z,20.93
2022-12-04T08:07:00.304Z,22.33
2022-12-04T08:17:50.685Z,24.23
2022-12-04T08:20:19.187Z,29.83
2022-12-04T08:23:16.774Z,23.23
2022-12-04T08:31:46.082Z,23.20
2022-12-04T08:34:16.988Z,23.27
2022-12-04T08:36:50.985Z,33.00
2022-12-04T08:39:21.101Z,22.20
2022-12-04T08:41:53.853Z,23.57
2022-12-04T08:44:25.789Z,21.17
2022-12-04T08:46:54.303Z,22.00
2022-12-04T08:49:24.154Z,22.80
2022-12-04T08:51:53.201Z,26.93
2022-12-04T08:54:23.916Z,22.67
2022-12-04T08:56:52.826Z,18.90
2022-12-04T08:59:22.930Z,25.33
2022-12-04T09:01:52.526Z,31.17
2022-12-04T09:04:21.192Z,23.30
2022-12-04T09:06:49.648Z,29.20
2022-12-04T09:09:17.920Z,20.03
2022-12-04T09:11:49.731Z,28.60
2022-12-04T09:14:20.553Z,24.40
2022-12-04T09:16:49.113Z,21.57
2022-12-04T09:19:17.730Z,21.00
2022-12-04T09:21:46.757Z,22.37
2022-12-04T09:24:15.290Z,24.50
2022-12-04T09:26:44.613Z,22.23
2022-12-04T09:29:17.542Z,22.87
2022-12-04T09:32:27.391Z,19.50
2022-12-04T09:35:25.198Z,23.27
2022-12-04T09:43:34.707Z,17.67
2022-12-04T09:46:14.130Z,19.33
2022-12-04T09:48:45.746Z,16.57
2022-12-04T09:51:19.681Z,19.13
2022-12-04T09:53:50.539Z,18.97
2022-12-04T09:56:23.382Z,20.23
2022-12-04T09:58:54.408Z,16.80
2022-12-04T10:01:28.143Z,17.13
2022-12-04T10:04:01.141Z,19.20
2022-12-04T10:06:38.066Z,18.70
2022-12-04T10:09:18.907Z,17.43
2022-12-04T10:11:50.871Z,21.57
2022-12-04T10:14:23.496Z,16.33
2022-12-04T10:17:09.135Z,19.50
2022-12-04T10:19:48.257Z,17.50
2022-12-04T10:22:21.112Z,17.63
2022-12-04T10:24:52.223Z,24.23
2022-12-04T10:27:23.194Z,17.53
2022-12-04T10:29:56.539Z,18.57
2022-12-04T10:32:30.859Z,18.23
2022-12-04T10:35:06.753Z,16.17
2022-12-04T10:37:37.085Z,19.27
2022-12-04T10:40:09.063Z,22.57
2022-12-04T10:42:43.103Z,20.30
2022-12-04T10:45:12.440Z,21.77
2022-12-04T10:47:45.918Z,18.43
2022-12-04T10:50:16.028Z,19.53
2022-12-04T10:52:51.234Z,20.90
2022-12-04T10:55:29.548Z,16.70
2022-12-04T10:57:58.441Z,18.33
2022-12-04T11:00:34.669Z,16.03
2022-12-04T11:03:07.576Z,16.40
2022-12-04T11:05:41.368Z,19.13
2022-12-04T11:08:13.392Z,18.53
2022-12-04T11:10:46.165Z,17.30
2022-12-04T11:13:17.455Z,19.30
2022-12-04T11:15:46.699Z,17.33
2022-12-04T11:18:19.509Z,17.63
2022-12-04T11:20:52.447Z,17.87
2022-12-04T11:23:21.738Z,19.93
2022-12-04T11:25:51.727Z,18.73
2022-12-04T11:28:40.758Z,21.20
2022-12-04T11:31:12.177Z,19.43
2022-12-04T11:33:45.096Z,19.83
2022-12-04T11:36:20.353Z,18.70
2022-12-04T11:38:49.003Z,18.43
2022-12-04T11:41:26.340Z,19.80
2022-12-04T11:43:59.649Z,18.47
2022-12-04T11:46:31.717Z,20.10
2022-12-04T11:49:03.443Z,18.97
2022-12-04T11:51:38.256Z,19.93
2022-12-04T11:54:09.622Z,18.60
2022-12-04T11:56:41.059Z,18.73
2022-12-04T11:59:22.230Z,16.90
2022-12-04T12:01:58.263Z,18.63
2022-12-04T12:05:00.624Z,17.63
2022-12-04T12:07:40.359Z,18.63
2022-12-04T12:10:12.383Z,19.17
2022-12-04T12:12:51.143Z,23.80
2022-12-04T12:15:26.055Z,21.83
2022-12-04T12:18:09.696Z,19.57
2022-12-04T12:20:41.613Z,19.30
2022-12-04T12:23:29.603Z,19.27
2022-12-04T12:26:04.062Z,19.03
2022-12-04T12:28:54.428Z,18.40
2022-12-04T12:31:36.613Z,21.77
2022-12-04T12:34:08.850Z,18.93
2022-12-04T12:36:46.662Z,16.47
2022-12-04T12:39:21.878Z,22.60
2022-12-04T12:41:53.735Z,21.00
2022-12-04T12:44:40.913Z,22.70
2022-12-04T12:47:11.422Z,20.33
2022-12-04T12:49:45.938Z,19.87
2022-12-04T13:11:06.430Z,20.40
2022-12-04T13:13:37.881Z,19.13
2022-12-04T13:16:08.492Z,20.13
2022-12-04T13:18:45.597Z,18.53
2022-12-04T13:21:25.836Z,19.97
2022-12-04T13:24:03.877Z,20.50
2022-12-04T13:26:49.145Z,17.57
2022-12-04T13:29:23.065Z,21.07
2022-12-04T13:31:56.868Z,23.57
2022-12-04T13:35:00.464Z,17.90
2022-12-04T13:37:47.839Z,19.00
2022-12-04T13:40:34.694Z,18.07
2022-12-04T13:43:30.673Z,20.87
2022-12-04T13:46:05.957Z,21.63
2022-12-04T13:48:37.683Z,19.30
2022-12-04T13:51:20.890Z,18.80
2022-12-04T13:54:03.707Z,18.07
2022-12-04T13:56:32.886Z,22.87
2022-12-04T13:59:05.837Z,20.53
2022-12-04T14:01:50.935Z,22.37
2022-12-04T14:04:27.805Z,20.30
2022-12-04T14:07:00.102Z,21.70
2022-12-04T14:09:30.264Z,21.23
2022-12-04T14:12:01.527Z,20.70
2022-12-04T14:14:32.684Z,18.50
2022-12-04T14:17:02.312Z,20.50
2022-12-04T14:19:46.604Z,21.67
2022-12-04T14:22:29.154Z,20.83
2022-12-04T14:25:07.461Z,23.50
2022-12-04T14:27:59.260Z,22.70
2022-12-04T14:30:34.654Z,22.50
2022-12-04T14:33:11.300Z,19.63
2022-12-04T14:35:46.088Z,25.43
2022-12-04T14:38:19.872Z,22.73
2022-12-04T14:40:50.940Z,24.23
2022-12-04T14:43:21.188Z,24.17
2022-12-04T14:45:54.537Z,26.93
2022-12-04T14:48:34.633Z,26.07
2022-12-04T14:51:19.872Z,25.20
2022-12-04T14:53:50.954Z,29.33
2022-12-04T14:56:25.853Z,27.03
2022-12-04T14:58:54.591Z,25.90
2022-12-04T15:01:29.434Z,31.00
2022-12-04T15:04:00.660Z,27.77
2022-12-04T15:06:30.714Z,29.00
2022-12-04T15:09:27.339Z,26.90
2022-12-04T15:12:14.932Z,31.33
2022-12-04T15:14:51.084Z,31.13
2022-12-04T15:17:25.607Z,27.10
2022-12-04T15:19:54.260Z,30.13
2022-12-04T15:22:27.570Z,33.83
2022-12-04T15:24:56.683Z,35.23
2022-12-04T15:27:32.047Z,28.17
2022-12-04T15:30:02.873Z,36.53
2022-12-04T15:32:35.190Z,30.33
2022-12-04T15:35:09.637Z,27.83
2022-12-04T15:37:38.874Z,32.87
2022-12-04T15:40:07.789Z,27.77
2022-12-04T15:42:36.974Z,29.80
2022-12-04T15:45:24.540Z,25.97
2022-12-04T16:16:01.580Z,40.37
2022-12-04T16:18:49.225Z,45.33
2022-12-04T16:21:56.577Z,34.90
2022-12-04T16:24:26.419Z,33.80
2022-12-04T16:29:38.275Z,35.27
2022-12-04T16:32:10.466Z,34.97
2022-12-04T16:34:41.133Z,28.07
2022-12-04T16:37:13.280Z,30.90
2022-12-04T16:39:42.609Z,27.40
2022-12-04T17:40:16.322Z,32.07
2022-12-04T17:46:04.168Z,26.03
2022-12-04T17:54:08.374Z,30.03
2022-12-04T17:57:00.965Z,30.37
2022-12-04T18:00:01.236Z,30.80
2022-12-04T18:06:18.906Z,27.60
2022-12-04T18:20:20.647Z,33.23
2022-12-04T18:37:16.954Z,31.17
2022-12-04T18:46:22.759Z,31.97
2022-12-04T18:52:20.913Z,30.23
2022-12-04T19:19:09.263Z,24.97
2022-12-04T19:21:42.330Z,27.30
2022-12-04T19:24:18.289Z,24.57
2022-12-04T19:26:47.658Z,24.77
2022-12-04T19:29:17.625Z,24.57
2022-12-04T19:41:10.658Z,22.27
2022-12-04T19:43:39.558Z,20.97
2022-12-04T19:46:10.693Z,22.93
2022-12-04T19:48:41.198Z,21.70
2022-12-04T19:51:32.747Z,20.73
2022-12-04T19:54:04.074Z,20.60
2022-12-04T19:56:41.360Z,20.33
2022-12-04T19:59:13.967Z,20.13
2022-12-04T20:01:43.575Z,21.30
2022-12-04T20:04:16.059Z,21.07
2022-12-04T20:06:47.937Z,22.17
2022-12-04T20:09:26.904Z,22.40
2022-12-04T20:12:03.548Z,23.53
2022-12-04T20:17:18.812Z,22.50
2022-12-04T20:19:52.977Z,22.87
2022-12-04T20:22:26.617Z,20.13
2022-12-04T20:25:00.750Z,21.33
2022-12-04T20:30:36.730Z,21.40
2022-12-04T20:33:06.840Z,17.37
2022-12-04T20:35:50.093Z,18.90
2022-12-04T20:38:33.402Z,19.70
2022-12-04T20:41:10.042Z,18.13
2022-12-04T20:43:43.154Z,20.87
2022-12-04T20:46:20.393Z,19.13
2022-12-04T20:48:58.825Z,18.13
2022-12-04T20:59:52.275Z,22.33
2022-12-04T21:02:22.163Z,18.07
2022-12-04T21:04:52.803Z,21.10
2022-12-04T21:07:22.935Z,20.60
2022-12-04T21:09:51.637Z,20.53
2022-12-04T21:12:43.139Z,19.33
2022-12-04T21:15:31.268Z,18.13
2022-12-04T21:18:02.418Z,19.93
2022-12-04T21:20:31.145Z,19.10
2022-12-04T21:22:59.879Z,21.47
2022-12-04T21:25:29.347Z,20.60
2022-12-04T21:27:58.981Z,17.83
2022-12-04T21:30:29.355Z,18.13
2022-12-04T21:32:59.519Z,18.37
2022-12-04T21:35:29.300Z,18.70
2022-12-04T21:37:59.440Z,21.40
2022-12-04T21:40:29.313Z,19.27
2022-12-04T21:42:57.416Z,15.07
2022-12-04T21:45:26.627Z,20.13
2022-12-04T21:47:58.918Z,16.53
2022-12-04T21:50:27.781Z,17.57
2022-12-04T21:52:57.836Z,16.83
2022-12-04T21:55:31.445Z,18.43
2022-12-04T21:58:02.483Z,17.80
2022-12-04T22:00:35.979Z,15.43
2022-12-04T22:03:10.033Z,18.47
2022-12-04T22:05:40.827Z,14.60
2022-12-04T22:08:28.036Z,15.87
2022-12-04T22:10:59.064Z,16.53
2022-12-04T22:16:30.641Z,20.77
2022-12-04T22:19:25.065Z,18.70
2022-12-04T22:22:13.614Z,18.10
2022-12-04T22:24:46.577Z,20.20
2022-12-04T22:30:22.799Z,15.93
2022-12-04T22:32:52.957Z,19.30
2022-12-04T22:35:35.726Z,16.13
2022-12-04T22:50:05.217Z,18.07
2022-12-04T23:01:35.010Z,17.97
2022-12-04T23:07:21.097Z,16.43
2022-12-04T23:21:49.698Z,17.53
2022-12-04T23:24:39.592Z,18.70
2022-12-04T23:27:18.695Z,16.30
2022-12-04T23:32:49.125Z,19.67
2022-12-04T23:35:33.044Z,16.70
2022-12-04T23:38:04.143Z,17.23
2022-12-04T23:43:53.871Z,16.70
2022-12-04T23:46:26.931Z,15.30
2022-12-04T23:48:57.346Z,17.07
2022-12-04T23:51:29.770Z,17.13
2022-12-04T23:54:00.279Z,16.60
2022-12-04T23:59:32.311Z,19.67
